Terminal Aerodrome Forecast
Issued by NWS

Home | Current Version | Previous Version | Text Only | Print | Product List | Glossary On
Versions: 1 2 3 4 5 6 7 8 9 10 11 12
000
FTUS42 TJSJ 050543
TAFIST
TAF
TIST 050543Z 0506/0606 09010KT P6SM SKC
     FM051300 13015G25KT P6SM FEW030 FEW050
     FM052300 09010KT P6SM SKC=

USA.gov is the U.S. government's official web portal to all federal, state and local government web resources and services.